[Jeden Mittwoch | 1730z - 2030z | EDDM] München Mittwoch

Zu Eventkalender hinzugefügt: 59 Daten

Samy Greve

874505
RG München - Event
RG München - NAV
RG München - Mentor


Und wieder lädt der Mittwoch zum gemeinsamen Fliegen in München ein!
Auch heute Abend sind wir wieder TOP Besetzt und freuen uns auf euren Besuch :)

Das Wetter lässt es diesmal ruhig angehen, aber wer weiß wo sich bis heute Abend noch Gewitterzellen bilden

EDDM 190500Z 1906/2012 VRB02KT 9999 SCT040 BECMG 1906/1908 26005KT BECMG 1914/1916 VRB03KT BECMG 2008/2010 20005KT

Bis heute Abend! :cool:
 

Samy Greve

874505
RG München - Event
RG München - NAV
RG München - Mentor


Sturmtief Kirsten hat sich für heute Abend angemeldet! Sie hat dazu noch gesagt, dass sie hier und da für paar Böen im Anflug sorgen wird - Grund genug heute Abend doch mal in München vorbeizuschauen!

EDDM 260500Z 2606/2712 25020G30KT CAVOK BECMG 2606/2609 26025G40KT BECMG 2613/2615 27020G30KT BECMG 2616/2618 27010KT BECMG 2622/2624 24005KT BECMG 2707/2709 30007KT

Der Airport ist wieder voll besetzt und die ATC Crew freut sich auf euren Besuch!

Dazu ist heute auch wieder Shuttletag mit Berlin, sodass sich die Rennstrecke Tegel <-> München zusätzlich anbietet!

Bis heute Abend :)
 

Michael Wellner

1024937
RG München - Event


Die Hälfte der Woche ist geschafft und wie jede Woche lädt Euch die RG München auch heute wieder am München-Mittwoch ab 1930lcl - also 1730z auf den "Franz Josef Strauß" Airport nach München ein.
Nachdem das Wetter die letzten Woche doch eher wechselhaft war, so ist allen Piloten heute zum Abend hin das schlechte Wetter fast schon garantiert. Mit Sichtweiten von nur 1500m wird es sicher so einige interessante ILS-Anflüge geben, bei denen sich der Runway recht spät zu erkennen geben wird.
Die Dünnblech-Franktion wird hier wohl am Simulator auf die CAVOK-Einstellung zurückgreifen müssen, wenn ihre Maschienen nicht IFR-tauglich ausgerüstet sind. Vielleicht gibt es aber auch den einen oder anderen klaren Moment, bei dem sich zumindest eine schnelle Platzrunde auch nach Sicht noch fliegen lässt.
Zusätzlich könnt Ihr heute auch Alexander Arlow bei seinem C3-CPT in Östereich unterstützen, der nach 16 Jahren VatSim heute ab 19z noch einmal zeigen will, dass er den Radarschirm voll im Griff hat - hoffentlich auch den Ansturm der Maschinen aus München.

METAR:
EDDM 020850Z 35004KT 300V050 9999 SCT012 SCT046 15/11 Q1018 NOSIG

TAF:
EDDM 020500Z 0206/0312 VRB03KT 9999 SCT040 PROB40 TEMPO 0206/0208 2000 BR BKN004 BECMG 0301/0303 1500 BCFG PROB30 TEMPO 0303/0306 0800 FG BECMG 0306/0308 9999




_________________VATSim-Germany / RG München / Event-Department
 

Pascal Klamm

1451860
RG München - Event


Auch heute wieder laden euch die Controller der RG München herzlich zum München Mittwoch von 1730z (19:30lcl) bis 2030z (22:30lcl) ein. Das Wetter sieht sehr vielversprechend aus. Wenn ihr also heute Abend noch nichts vor habt dann stattet uns doch einen Besuch ab. Wie immer freuen wir uns auf euch!

METAR:
EDDM 091350Z 24005KT 190V260 CAVOK 23/13 Q1022 NOSIG
TAF:
EDDM 091100Z 0912/1018 28005KT CAVOK
BECMG 0916/0918 VRB03KT
TEMPO 1002/1008 2000 BCFG
BECMG 1009/1011 04005KT
 

Samy Greve

874505
RG München - Event
RG München - NAV
RG München - Mentor


Der Sommer ist zwar zurück, aber die RG München lädt euch auch heute Abend wieder herzlich ein zum München Mittwoch! Ab 1930 Uhr (lokal) sind wir wieder voll am Flughafen München für euch besetzt!

Des Weiteren möchte Lennart heute sein können beim Tower CPT unter Beweis stellen. :)

Wir freuen uns auf euren Besuch! :cool:

EDDM 160500Z 1606/1712 VRB03KT CAVOK BECMG 1609/1611 29005KT BECMG 1616/1618 VRB03KT BECMG 1708/1710 02005KT PROB30 TEMPO 1710/1712 SHRA BKN030CB
 
Zuletzt bearbeitet:
Oben